Annette, Alaska
Current Conditions -  °F | °C
As of 5:53 AM on Thursday 30 Oct 2014 (Local Time) from PANT Reporting Station
Light Rain Light Rain  
Wind Chill: 43°   Ceiling: 5000
Heat Index: 49°   Visibility: 10mi
Dew Point: 45°   Wind: 15mph
Humidity: 86%   Direction: 110°ESE
Pressure: 29.46"   Gusts: 32mph
Location:  55.05°N, 131.6°W
Report Text: PANT 301453Z 11013G28KT 10SM -RA FEW043 OVC050 09/07 A2946 RMK AO2 PK WND 12033/1442 SLP976 P0004 60027 T00940072 56034
Loading
Personal Weather Stations






























Interactive Weather Map New forecast layout! Learn more

10-Day Weather Forecast

Advertisements
Track Severe Weather on mobile